Time;durP1;ratioP1;P1;durP2;ratioP2;P2;SDS_P1;SDS_P2;PMS_P1;PMS_P2;Temp;Humidity;BMP_temperature;BMP_pressure;BME280_temperature;BME280_humidity;BME280_pressure;Samples;Min_cycle;Max_cycle;Signal;HPM_P1;HPM_P2
2022/09/08 00:00:54;;;;;;;12.60;1.70;;;15.90;99.90;;;;;;5113676;27;20036;-70
2022/09/08 00:03:25;;;;;;;8.55;1.65;;;16.00;99.90;;;;;;5111186;27;20099;-70
2022/09/08 00:06:04;;;;;;;7.25;1.52;;;16.00;99.90;;;;;;5106357;27;20130;-70
2022/09/08 00:08:30;;;;;;;9.57;1.58;;;16.10;99.90;;;;;;5076244;28;20023;-71
2022/09/08 00:10:58;;;;;;;10.70;1.70;;;16.10;99.90;;;;;;5109638;27;20027;-70
2022/09/08 00:13:25;;;;;;;12.18;1.75;;;16.10;99.90;;;;;;5105793;28;20119;-71
2022/09/08 00:15:52;;;;;;;8.38;1.23;;;16.00;99.90;;;;;;5110748;27;20038;-70
2022/09/08 00:18:19;;;;;;;11.93;1.45;;;16.00;99.90;;;;;;5094962;28;20035;-70
2022/09/08 00:20:44;;;;;;;10.98;1.27;;;16.00;99.90;;;;;;5112511;27;20028;-71
2022/09/08 00:23:10;;;;;;;9.00;1.20;;;16.00;99.90;;;;;;5105333;27;20051;-70
2022/09/08 00:25:36;;;;;;;10.77;1.40;;;16.00;99.90;;;;;;5102891;27;20240;-70
2022/09/08 00:28:01;;;;;;;9.60;1.35;;;15.90;99.90;;;;;;5112067;27;20043;-71
2022/09/08 00:30:27;;;;;;;11.82;1.45;;;15.90;99.90;;;;;;5106958;28;20038;-70
2022/09/08 00:32:53;;;;;;;8.40;1.67;;;15.90;99.90;;;;;;5106031;28;20027;-70
2022/09/08 00:35:19;;;;;;;8.27;1.48;;;15.90;99.90;;;;;;5089693;28;20059;-71
2022/09/08 00:37:46;;;;;;;6.32;1.30;;;15.90;99.90;;;;;;5103412;28;20470;-71
2022/09/08 00:40:13;;;;;;;9.15;1.20;;;15.90;99.90;;;;;;5104971;28;20499;-71
2022/09/08 00:42:38;;;;;;;9.02;1.58;;;15.90;99.90;;;;;;5102685;28;20204;-70
2022/09/08 00:45:05;;;;;;;7.63;1.10;;;15.80;99.90;;;;;;5099630;28;20130;-70
2022/09/08 00:47:38;;;;;;;7.60;1.23;;;15.80;99.90;;;;;;5087391;28;20047;-70
2022/09/08 00:50:09;;;;;;;8.80;1.25;;;15.70;99.90;;;;;;5087738;27;20115;-70
2022/09/08 00:53:13;;;;;;;5.90;1.00;;;15.70;99.90;;;;;;5116086;27;20574;-71
2022/09/08 00:55:39;;;;;;;6.07;0.98;;;15.60;99.90;;;;;;5068435;27;20137;-72
2022/09/08 00:58:06;;;;;;;4.78;1.20;;;15.50;99.90;;;;;;5103604;28;20035;-70
2022/09/08 01:00:34;;;;;;;7.07;1.10;;;15.50;99.90;;;;;;5104914;27;20035;-71
2022/09/08 01:03:00;;;;;;;10.35;1.33;;;15.40;99.90;;;;;;5106667;27;20035;-70
2022/09/08 01:05:33;;;;;;;6.30;0.80;;;15.40;99.90;;;;;;5103660;27;20039;-70
2022/09/08 01:13:44;;;;;;;5.88;0.90;;;15.30;99.90;;;;;;5107408;27;20070;-70
2022/09/08 01:16:11;;;;;;;9.70;1.38;;;15.20;99.90;;;;;;5102753;28;20051;-70
2022/09/08 01:18:38;;;;;;;7.35;1.20;;;15.20;99.90;;;;;;5106500;28;20032;-70
2022/09/08 01:21:10;;;;;;;12.07;1.50;;;15.20;99.90;;;;;;5081404;28;20032;-71
2022/09/08 01:24:03;;;;;;;10.73;1.40;;;15.20;99.90;;;;;;5111777;28;20034;-70
2022/09/08 01:27:04;;;;;;;6.57;1.52;;;15.30;99.90;;;;;;5100910;28;20058;-72
2022/09/08 01:29:30;;;;;;;5.85;1.20;;;15.30;99.90;;;;;;5103811;28;20510;-70
2022/09/08 01:31:58;;;;;;;7.95;1.50;;;15.30;99.90;;;;;;5108226;28;20051;-70
2022/09/08 01:34:23;;;;;;;8.45;1.42;;;15.30;99.90;;;;;;5112651;28;20140;-70
2022/09/08 01:36:49;;;;;;;11.90;1.40;;;15.30;99.90;;;;;;5089415;28;20544;-70
2022/09/08 01:39:14;;;;;;;11.38;1.75;;;15.40;99.90;;;;;;5105584;28;20050;-71
2022/09/08 01:41:40;;;;;;;9.93;1.35;;;15.40;99.90;;;;;;5112406;28;20031;-72
2022/09/08 01:44:06;;;;;;;8.77;1.50;;;15.40;99.90;;;;;;5103706;28;20052;-71
2022/09/08 01:46:32;;;;;;;18.30;2.95;;;15.40;99.90;;;;;;5105599;28;20397;-70
2022/09/08 01:48:58;;;;;;;6.55;1.38;;;15.40;99.90;;;;;;5103756;28;20076;-70
2022/09/08 01:51:23;;;;;;;9.27;1.70;;;15.30;99.90;;;;;;5107428;28;20035;-69
2022/09/08 01:53:49;;;;;;;8.20;1.25;;;15.40;99.90;;;;;;5111542;28;20450;-70
2022/09/08 01:56:15;;;;;;;4.55;1.30;;;15.30;99.90;;;;;;5106501;28;20023;-70
2022/09/08 01:58:40;;;;;;;10.93;1.30;;;15.30;99.90;;;;;;5098302;28;20047;-72
2022/09/08 02:01:06;;;;;;;8.18;1.60;;;15.40;99.90;;;;;;5106883;28;20086;-70
2022/09/08 02:03:32;;;;;;;10.73;1.70;;;15.30;99.90;;;;;;5103608;28;20063;-71
2022/09/08 02:06:01;;;;;;;6.90;1.40;;;15.30;99.90;;;;;;5114084;28;20027;-70
2022/09/08 02:08:27;;;;;;;9.20;1.42;;;15.30;99.90;;;;;;5106365;28;20038;-71
2022/09/08 02:10:55;;;;;;;9.25;1.60;;;15.30;99.90;;;;;;5082601;28;20040;-71
2022/09/08 02:13:22;;;;;;;9.07;1.80;;;15.30;99.90;;;;;;5100942;28;20039;-70
2022/09/08 02:15:47;;;;;;;10.90;1.60;;;15.30;99.90;;;;;;5108337;27;20040;-70
2022/09/08 02:18:13;;;;;;;12.45;1.80;;;15.30;99.90;;;;;;5111142;27;20027;-71
2022/09/08 02:20:38;;;;;;;6.53;1.50;;;15.30;99.90;;;;;;5114227;27;20042;-70
2022/09/08 02:23:04;;;;;;;10.52;1.95;;;15.30;99.90;;;;;;5091865;28;20038;-69
2022/09/08 02:25:29;;;;;;;10.63;1.90;;;15.30;99.90;;;;;;5108237;27;20088;-70
2022/09/08 02:27:55;;;;;;;12.88;1.92;;;15.30;99.90;;;;;;5114826;27;20453;-71
2022/09/08 02:30:22;;;;;;;8.55;1.98;;;15.30;99.90;;;;;;5113222;27;20030;-70
2022/09/08 02:32:49;;;;;;;9.00;1.58;;;15.40;99.90;;;;;;5087284;28;20040;-71
2022/09/08 02:35:15;;;;;;;12.00;2.00;;;15.30;99.90;;;;;;5106143;28;20033;-70
2022/09/08 02:37:40;;;;;;;11.82;1.85;;;15.30;99.90;;;;;;5107355;27;20031;-72
2022/09/08 02:40:07;;;;;;;9.75;1.77;;;15.30;99.90;;;;;;5107250;27;20040;-71
2022/09/08 02:42:33;;;;;;;10.10;1.60;;;15.30;99.90;;;;;;5088122;28;20371;-70
2022/09/08 02:44:59;;;;;;;4.95;1.45;;;15.30;99.90;;;;;;5107958;27;20103;-71
2022/09/08 02:47:24;;;;;;;7.95;1.90;;;15.30;99.90;;;;;;5113323;27;20031;-71
2022/09/08 02:49:50;;;;;;;7.75;1.80;;;15.30;99.90;;;;;;5090540;28;20039;-70
2022/09/08 02:52:15;;;;;;;10.00;1.80;;;15.30;99.90;;;;;;5106248;27;20036;-71
2022/09/08 02:54:41;;;;;;;9.52;1.65;;;15.20;99.90;;;;;;5112439;27;20119;-70
2022/09/08 02:57:06;;;;;;;10.88;1.85;;;15.30;99.90;;;;;;5088206;28;20500;-70
2022/09/08 02:59:32;;;;;;;6.70;2.05;;;15.30;99.90;;;;;;5104997;27;20050;-70
2022/09/08 03:01:58;;;;;;;10.80;1.80;;;15.20;99.90;;;;;;5106613;27;20103;-70
2022/09/08 03:04:25;;;;;;;11.05;1.90;;;15.20;99.90;;;;;;5110376;27;20023;-70
2022/09/08 03:06:51;;;;;;;6.85;1.52;;;15.20;99.90;;;;;;5107257;28;20065;-70
2022/09/08 03:09:17;;;;;;;5.32;1.40;;;15.20;99.90;;;;;;5109330;27;20066;-70
2022/09/08 03:11:42;;;;;;;6.70;1.90;;;15.20;99.90;;;;;;5092551;28;20031;-71
2022/09/08 03:14:09;;;;;;;8.18;1.83;;;15.20;99.90;;;;;;5101572;27;20110;-72
2022/09/08 03:16:35;;;;;;;11.45;1.80;;;15.20;99.90;;;;;;5082624;28;20862;-70
2022/09/08 03:19:00;;;;;;;10.90;1.88;;;15.20;99.90;;;;;;5102430;27;20024;-70
2022/09/08 03:21:26;;;;;;;12.68;1.95;;;15.20;99.90;;;;;;5114154;27;20568;-70
2022/09/08 03:23:53;;;;;;;11.70;2.20;;;15.20;99.90;;;;;;5096613;28;20027;-70
2022/09/08 03:26:20;;;;;;;10.98;2.25;;;15.20;99.90;;;;;;5074480;28;20035;-70
2022/09/08 03:28:47;;;;;;;13.32;2.15;;;15.20;99.90;;;;;;5104733;28;21189;-69
2022/09/08 03:31:15;;;;;;;15.75;2.92;;;15.20;99.90;;;;;;5112783;27;20024;-70
2022/09/08 03:33:42;;;;;;;16.35;2.72;;;15.20;99.90;;;;;;5107422;28;20127;-69
2022/09/08 03:36:09;;;;;;;16.90;2.47;;;15.30;99.90;;;;;;5106367;28;20396;-71
2022/09/08 03:38:35;;;;;;;14.70;2.30;;;15.40;99.90;;;;;;5106647;28;20039;-69
2022/09/08 03:41:07;;;;;;;16.50;2.70;;;15.40;99.90;;;;;;5105518;28;20112;-69
2022/09/08 03:43:33;;;;;;;17.77;2.88;;;15.40;99.90;;;;;;5087599;28;20560;-68
2022/09/08 03:45:59;;;;;;;15.25;3.65;;;15.50;99.90;;;;;;5110275;27;20031;-69
2022/09/08 03:48:25;;;;;;;21.00;3.50;;;15.50;99.90;;;;;;5121206;27;20053;-69
2022/09/08 03:50:51;;;;;;;21.85;3.47;;;15.50;99.90;;;;;;5116895;27;20039;-71
2022/09/08 03:53:17;;;;;;;22.50;3.70;;;15.50;99.90;;;;;;5113047;27;20023;-68
2022/09/08 03:55:42;;;;;;;16.30;3.70;;;15.50;99.90;;;;;;5093561;27;20027;-70
2022/09/08 03:58:09;;;;;;;19.65;3.35;;;15.60;99.90;;;;;;5086088;28;20024;-70
2022/09/08 04:00:35;;;;;;;15.25;3.33;;;15.50;99.90;;;;;;5106201;27;20529;-69
2022/09/08 04:03:01;;;;;;;22.25;3.17;;;15.50;99.90;;;;;;5088303;28;20044;-69
2022/09/08 04:05:27;;;;;;;17.63;3.00;;;15.50;99.90;;;;;;5106865;27;20038;-69
2022/09/08 04:07:52;;;;;;;19.30;2.75;;;15.50;99.90;;;;;;5107753;27;20032;-69
2022/09/08 04:10:19;;;;;;;16.52;2.53;;;15.50;99.90;;;;;;5102883;28;20027;-69
2022/09/08 04:12:46;;;;;;;19.63;2.72;;;15.50;99.90;;;;;;5113250;27;20031;-68
2022/09/08 04:15:12;;;;;;;21.13;2.75;;;15.50;99.90;;;;;;5105301;28;20473;-69
2022/09/08 04:17:39;;;;;;;19.85;3.53;;;15.60;99.90;;;;;;5092266;28;20040;-69
2022/09/08 04:20:05;;;;;;;19.48;2.95;;;15.60;99.90;;;;;;5102146;28;20051;-68
2022/09/08 04:22:31;;;;;;;18.38;2.60;;;15.60;99.90;;;;;;5109871;27;20045;-68
2022/09/08 04:24:57;;;;;;;24.05;3.17;;;15.60;99.90;;;;;;5115009;27;20110;-68
2022/09/08 04:27:23;;;;;;;18.05;2.80;;;15.60;99.90;;;;;;5109213;27;20398;-70
2022/09/08 04:29:50;;;;;;;13.60;2.78;;;15.60;99.90;;;;;;5108329;27;20058;-69
2022/09/08 04:32:16;;;;;;;19.08;2.95;;;15.60;99.90;;;;;;5109563;27;20024;-69
2022/09/08 04:34:42;;;;;;;20.90;2.97;;;15.70;99.90;;;;;;5106198;28;20039;-68
2022/09/08 04:37:08;;;;;;;18.88;2.88;;;15.70;99.90;;;;;;5107466;27;20035;-69
2022/09/08 04:39:34;;;;;;;21.40;3.58;;;15.70;99.90;;;;;;5110064;27;20047;-69
2022/09/08 04:42:00;;;;;;;16.38;2.63;;;15.70;99.90;;;;;;5105286;27;20444;-68
2022/09/08 04:44:26;;;;;;;22.42;3.38;;;15.60;99.90;;;;;;5102630;27;20066;-70
2022/09/08 04:46:51;;;;;;;15.93;2.50;;;15.70;99.90;;;;;;5108537;27;20031;-70
2022/09/08 04:49:17;;;;;;;17.40;3.38;;;15.70;99.90;;;;;;5110776;27;20031;-69
2022/09/08 04:51:43;;;;;;;19.15;2.58;;;15.70;99.90;;;;;;5103232;28;20502;-70
2022/09/08 04:54:09;;;;;;;18.58;2.70;;;15.70;99.90;;;;;;5106123;27;20059;-69
2022/09/08 04:56:36;;;;;;;17.77;3.10;;;15.80;99.90;;;;;;5109730;27;20031;-69
2022/09/08 04:59:02;;;;;;;19.10;2.58;;;15.80;99.90;;;;;;5084208;28;20474;-69
2022/09/08 05:01:30;;;;;;;19.33;2.97;;;15.80;99.90;;;;;;5106227;27;20034;-69
2022/09/08 05:04:00;;;;;;;12.25;2.92;;;15.80;99.90;;;;;;5100817;27;20038;-69
2022/09/08 05:06:27;;;;;;;17.48;2.90;;;15.90;99.90;;;;;;5109307;27;20156;-69
2022/09/08 05:08:55;;;;;;;15.57;3.05;;;15.80;99.90;;;;;;5103821;28;20114;-69
2022/09/08 05:11:21;;;;;;;14.75;2.17;;;15.90;99.90;;;;;;5107239;28;20031;-69
2022/09/08 05:13:49;;;;;;;13.80;2.10;;;15.90;99.90;;;;;;5089660;28;20047;-69
2022/09/08 05:16:17;;;;;;;10.77;2.20;;;15.80;99.90;;;;;;5111962;27;20027;-70
2022/09/08 05:18:48;;;;;;;13.77;1.70;;;15.80;99.90;;;;;;5129116;28;20019;-70
2022/09/08 05:21:14;;;;;;;10.80;1.92;;;15.70;99.90;;;;;;5095666;28;20035;-69
2022/09/08 05:23:40;;;;;;;9.82;1.20;;;15.70;99.90;;;;;;5128085;28;20027;-69
2022/09/08 05:26:07;;;;;;;9.40;1.63;;;15.60;99.90;;;;;;5126160;28;20084;-69
2022/09/08 05:28:35;;;;;;;6.50;1.27;;;15.50;99.90;;;;;;5127880;28;20031;-69
2022/09/08 05:31:01;;;;;;;8.75;1.63;;;15.50;99.90;;;;;;5122569;28;20103;-70
2022/09/08 05:33:27;;;;;;;10.38;1.95;;;15.40;99.90;;;;;;5114594;28;20449;-69
2022/09/08 05:35:53;;;;;;;7.22;1.13;;;15.50;99.90;;;;;;5127986;28;20023;-70
2022/09/08 05:38:19;;;;;;;5.30;0.90;;;15.40;99.90;;;;;;5101394;28;20031;-69
2022/09/08 05:40:45;;;;;;;4.15;0.60;;;15.10;99.90;;;;;;5106099;28;20648;-68
2022/09/08 05:43:11;;;;;;;5.18;0.82;;;14.90;99.90;;;;;;5101683;28;20503;-69
2022/09/08 05:45:37;;;;;;;9.32;1.35;;;14.80;99.90;;;;;;5099577;28;20035;-68
2022/09/08 05:48:03;;;;;;;5.65;1.17;;;14.70;99.90;;;;;;5127207;27;20153;-69
2022/09/08 05:50:34;;;;;;;9.05;2.30;;;14.70;99.90;;;;;;5104710;28;20458;-71
2022/09/08 05:53:00;;;;;;;19.58;2.15;;;14.70;99.90;;;;;;5090948;28;20031;-69
2022/09/08 05:55:26;;;;;;;13.35;2.33;;;14.70;99.90;;;;;;5114889;27;20362;-68
2022/09/08 05:57:52;;;;;;;14.43;1.98;;;14.70;99.90;;;;;;5119466;27;20456;-69
2022/09/08 06:00:17;;;;;;;10.30;1.58;;;14.70;99.90;;;;;;5106025;28;20050;-71
2022/09/08 06:02:43;;;;;;;14.52;2.10;;;14.70;99.90;;;;;;5107124;27;20031;-69
2022/09/08 06:05:10;;;;;;;14.15;2.45;;;14.80;99.90;;;;;;5103522;28;20020;-70
2022/09/08 06:07:36;;;;;;;14.60;2.85;;;14.80;99.90;;;;;;5108869;27;20054;-70
2022/09/08 06:10:01;;;;;;;21.35;3.50;;;14.90;99.90;;;;;;5107536;27;20043;-71
2022/09/08 06:12:27;;;;;;;14.48;2.72;;;15.00;99.90;;;;;;5106343;28;20108;-72
2022/09/08 06:14:52;;;;;;;8.35;1.30;;;15.00;99.90;;;;;;5107503;28;20102;-71
2022/09/08 06:17:18;;;;;;;10.95;1.95;;;14.90;99.90;;;;;;5105546;28;20105;-69
2022/09/08 06:19:44;;;;;;;6.40;1.60;;;14.70;99.90;;;;;;5101661;27;20058;-72
2022/09/08 06:22:09;;;;;;;6.95;1.38;;;14.60;99.90;;;;;;5109809;27;20030;-71
2022/09/08 06:24:35;;;;;;;9.93;1.75;;;14.50;99.90;;;;;;5122685;27;20031;-72
2022/09/08 06:27:03;;;;;;;12.15;2.28;;;14.50;99.90;;;;;;5110008;27;20065;-70
2022/09/08 06:29:52;;;;;;;14.80;2.97;;;14.50;99.90;;;;;;5113921;27;20078;-72
2022/09/08 06:32:30;;;;;;;10.13;1.80;;;14.50;99.90;;;;;;5118782;27;20035;-72
2022/09/08 06:35:10;;;;;;;12.40;1.77;;;14.40;99.90;;;;;;5119554;27;20032;-72
2022/09/08 06:37:39;;;;;;;6.90;1.40;;;14.40;99.90;;;;;;5110353;27;20023;-72
2022/09/08 06:40:26;;;;;;;9.10;1.60;;;14.30;99.90;;;;;;5103788;28;20512;-71
2022/09/08 06:43:03;;;;;;;9.32;1.63;;;14.30;99.90;;;;;;5119221;27;20031;-72
2022/09/08 06:45:34;;;;;;;12.40;1.60;;;14.40;99.90;;;;;;5108566;28;20112;-71
2022/09/08 06:48:12;;;;;;;12.90;2.40;;;14.40;99.90;;;;;;5092432;27;20023;-71
2022/09/08 06:50:47;;;;;;;11.45;1.73;;;14.40;99.90;;;;;;5114527;27;20035;-72
2022/09/08 06:53:21;;;;;;;11.85;2.17;;;14.40;99.90;;;;;;5102544;27;20031;-72
2022/09/08 06:55:56;;;;;;;12.18;2.00;;;14.40;99.90;;;;;;5088468;28;20087;-72
2022/09/08 06:58:32;;;;;;;11.82;2.63;;;14.40;99.90;;;;;;5086567;28;20124;-71
2022/09/08 07:01:08;;;;;;;8.82;1.90;;;14.40;99.90;;;;;;5101873;27;20142;-72
2022/09/08 07:03:43;;;;;;;8.63;2.08;;;14.40;99.90;;;;;;5115283;27;20027;-72
2022/09/08 07:06:10;;;;;;;10.00;2.22;;;14.40;99.90;;;;;;5094377;27;20047;-73
2022/09/08 07:09:09;;;;;;;13.52;2.47;;;14.50;99.90;;;;;;5093490;28;20545;-72
2022/09/08 07:11:44;;;;;;;11.85;2.30;;;14.50;99.90;;;;;;5112279;27;20609;-71
2022/09/08 07:14:13;;;;;;;13.13;2.95;;;14.50;99.90;;;;;;5123255;27;20080;-70
2022/09/08 07:17:04;;;;;;;13.05;3.10;;;14.50;99.90;;;;;;5099825;27;20104;-70
2022/09/08 07:19:43;;;;;;;18.92;3.67;;;14.50;99.90;;;;;;5113894;27;20043;-71
2022/09/08 07:22:20;;;;;;;13.75;3.13;;;14.50;99.90;;;;;;5109578;28;20035;-70
2022/09/08 07:24:50;;;;;;;12.80;2.55;;;14.50;99.90;;;;;;5109679;28;20039;-70
2022/09/08 07:27:16;;;;;;;;;;;14.50;99.90;;;;;;5110139;28;20028;-70
2022/09/08 07:29:50;;;;;;;12.00;2.20;;;14.60;99.90;;;;;;5091187;28;19918;-70
2022/09/08 07:32:21;;;;;;;11.77;2.30;;;14.50;99.90;;;;;;5091525;28;20720;-71
2022/09/08 07:34:53;;;;;;;15.52;2.80;;;14.60;99.90;;;;;;5109609;28;20673;-69
2022/09/08 07:37:38;;;;;;;10.70;2.20;;;14.60;99.90;;;;;;5076137;28;20031;-71
2022/09/08 07:40:16;;;;;;;13.15;2.53;;;14.60;99.90;;;;;;5103795;28;20392;-71
2022/09/08 07:43:09;;;;;;;12.02;2.38;;;14.60;99.90;;;;;;5103285;28;20047;-71
2022/09/08 07:45:42;;;;;;;14.85;2.97;;;14.70;99.90;;;;;;5084979;28;20043;-71
2022/09/08 07:48:38;;;;;;;14.57;2.80;;;14.70;99.90;;;;;;5106257;28;20038;-71
2022/09/08 07:51:14;;;;;;;13.95;3.10;;;14.80;99.90;;;;;;5099450;28;20532;-71
2022/09/08 07:54:07;;;;;;;11.32;2.53;;;14.90;99.90;;;;;;5108929;28;20031;-71
2022/09/08 07:56:48;;;;;;;14.38;2.72;;;14.90;99.90;;;;;;5090716;28;20043;-71
2022/09/08 07:59:29;;;;;;;11.27;2.33;;;14.90;99.90;;;;;;5108926;28;20027;-70
2022/09/08 08:02:19;;;;;;;17.35;3.30;;;15.00;99.90;;;;;;5097851;28;20091;-70
2022/09/08 08:05:08;;;;;;;20.27;4.93;;;15.00;99.90;;;;;;5107765;28;20111;-70
2022/09/08 08:07:46;;;;;;;14.55;2.85;;;15.00;99.90;;;;;;5101204;27;20038;-71
2022/09/08 08:10:24;;;;;;;15.25;2.60;;;15.00;99.90;;;;;;5099356;28;20032;-71
2022/09/08 08:13:04;;;;;;;17.50;3.15;;;15.10;99.90;;;;;;5101144;27;20138;-71
2022/09/08 08:16:13;;;;;;;15.23;2.70;;;15.10;99.90;;;;;;5097519;28;20525;-71
2022/09/08 08:19:16;;;;;;;16.73;3.00;;;15.10;99.90;;;;;;5037119;28;20040;-71
2022/09/08 08:21:59;;;;;;;14.68;2.90;;;15.20;99.90;;;;;;5101620;28;20071;-71
2022/09/08 08:24:27;;;;;;;18.90;3.20;;;15.20;99.90;;;;;;5110484;27;20062;-71
2022/09/08 08:27:02;;;;;;;22.02;3.67;;;15.30;99.90;;;;;;5103177;27;20024;-72
2022/09/08 08:29:58;;;;;;;20.58;3.17;;;15.30;99.90;;;;;;5102896;27;20120;-71
2022/09/08 08:32:29;;;;;;;25.58;3.40;;;15.40;99.90;;;;;;5079447;28;20089;-71
2022/09/08 08:35:14;;;;;;;17.17;3.10;;;15.50;99.90;;;;;;5108666;28;20050;-71
2022/09/08 08:37:43;;;;;;;19.55;3.30;;;15.80;99.90;;;;;;5094834;28;20024;-72
2022/09/08 08:40:40;;;;;;;21.98;4.00;;;16.00;99.90;;;;;;5094479;27;20039;-72
2022/09/08 08:43:24;;;;;;;16.05;3.75;;;16.20;99.90;;;;;;5097997;28;20097;-73
2022/09/08 08:46:22;;;;;;;21.85;3.80;;;16.40;99.90;;;;;;5092727;28;20089;-72
2022/09/08 08:49:15;;;;;;;24.52;4.22;;;16.40;99.90;;;;;;5088089;28;20062;-73
2022/09/08 08:51:47;;;;;;;27.63;4.25;;;16.60;99.90;;;;;;5076708;28;20568;-72
2022/09/08 08:54:37;;;;;;;32.28;5.30;;;16.80;99.90;;;;;;5107801;28;20104;-71
2022/09/08 08:57:20;;;;;;;23.30;4.43;;;16.70;99.90;;;;;;5085535;28;20035;-72
2022/09/08 09:00:03;;;;;;;23.52;4.88;;;16.60;99.90;;;;;;5095796;28;20035;-72
2022/09/08 09:02:38;;;;;;;19.75;3.75;;;16.50;99.90;;;;;;5089781;28;20036;-71
2022/09/08 09:05:21;;;;;;;24.35;4.35;;;16.50;99.90;;;;;;5092994;28;20117;-72
2022/09/08 09:08:20;;;;;;;24.45;5.40;;;16.70;99.90;;;;;;5093536;28;20024;-74
2022/09/08 09:10:49;;;;;;;20.17;3.83;;;17.00;99.90;;;;;;5088418;28;20101;-72
2022/09/08 09:13:34;;;;;;;22.95;5.18;;;17.00;99.90;;;;;;5107283;28;20465;-74
2022/09/08 09:16:37;;;;;;;27.25;5.03;;;16.90;99.90;;;;;;5108365;28;20024;-71
2022/09/08 09:19:24;;;;;;;18.90;3.42;;;16.70;99.90;;;;;;5099930;28;20023;-73
2022/09/08 09:21:52;;;;;;;16.25;4.05;;;16.50;99.90;;;;;;5107867;28;20051;-72
2022/09/08 09:24:53;;;;;;;17.05;3.13;;;16.20;99.90;;;;;;5103079;28;20076;-73
2022/09/08 09:27:33;;;;;;;20.58;4.28;;;16.00;99.90;;;;;;5036841;28;20049;-72
2022/09/08 09:30:20;;;;;;;23.33;3.78;;;16.00;99.90;;;;;;5041821;28;20056;-70
2022/09/08 09:33:03;;;;;;;21.88;4.28;;;16.00;99.90;;;;;;5036770;28;20033;-72
2022/09/08 09:35:48;;;;;;;18.15;3.35;;;16.00;99.90;;;;;;5043760;28;20033;-73
2022/09/08 09:38:22;;;;;;;19.45;4.00;;;15.90;99.90;;;;;;5027040;28;20119;-73
2022/09/08 09:41:18;;;;;;;21.23;5.07;;;16.00;99.90;;;;;;5030441;28;20043;-73
2022/09/08 09:44:18;;;;;;;24.42;5.07;;;16.10;99.90;;;;;;5043667;28;20087;-74
2022/09/08 09:46:55;;;;;;;23.80;4.40;;;16.30;99.90;;;;;;5042067;28;20526;-74
2022/09/08 09:49:50;;;;;;;31.85;5.60;;;16.50;99.90;;;;;;5027417;28;20033;-73
2022/09/08 09:52:59;;;;;;;28.02;4.90;;;16.70;99.90;;;;;;5034631;28;20538;-74
2022/09/08 09:55:34;;;;;;;24.90;4.18;;;17.00;99.90;;;;;;4965377;28;20069;-72
2022/09/08 09:58:05;;;;;;;25.70;4.07;;;17.30;99.90;;;;;;4966047;28;20085;-74
2022/09/08 10:00:53;;;;;;;19.48;4.47;;;17.20;99.90;;;;;;4965718;28;20035;-73
2022/09/08 10:03:27;;;;;;;20.48;4.10;;;17.10;99.90;;;;;;5002475;28;20041;-73
2022/09/08 10:06:14;;;;;;;19.75;3.60;;;17.20;99.90;;;;;;5004029;28;20049;-72
2022/09/08 10:09:20;;;;;;;25.98;4.35;;;17.30;99.90;;;;;;5012964;28;20833;-71
2022/09/08 10:12:04;;;;;;;22.40;3.80;;;17.70;99.90;;;;;;5007527;28;20484;-72
2022/09/08 10:15:15;;;;;;;23.08;4.28;;;17.90;99.90;;;;;;5023981;28;20103;-72
2022/09/08 10:18:17;;;;;;;21.10;3.83;;;17.80;99.90;;;;;;4965234;28;20095;-70
2022/09/08 10:21:01;;;;;;;22.95;4.03;;;17.60;99.90;;;;;;4961345;28;20047;-71
2022/09/08 10:23:42;;;;;;;18.45;3.67;;;17.40;99.90;;;;;;4949207;28;20034;-73
2022/09/08 10:26:31;;;;;;;18.27;3.42;;;17.00;99.90;;;;;;4965439;28;20142;-72
2022/09/08 10:29:18;;;;;;;19.50;3.47;;;16.80;99.90;;;;;;4999287;28;20045;-74
2022/09/08 10:32:01;;;;;;;18.02;3.65;;;16.80;99.90;;;;;;5080633;28;20021;-73
2022/09/08 10:34:56;;;;;;;22.85;4.40;;;16.60;99.90;;;;;;5081125;28;20043;-74
2022/09/08 10:38:00;;;;;;;23.33;3.55;;;16.50;99.90;;;;;;5070737;28;20047;-73
2022/09/08 10:40:26;;;;;;;23.17;4.07;;;16.50;99.90;;;;;;4986563;28;20041;-74
2022/09/08 10:42:57;;;;;;;26.00;4.32;;;16.50;99.90;;;;;;4987744;28;20034;-73
2022/09/08 10:45:34;;;;;;;18.48;3.35;;;16.40;99.90;;;;;;4985581;28;20046;-73
2022/09/08 10:48:18;;;;;;;20.35;3.35;;;16.50;99.90;;;;;;4973510;28;20097;-74
2022/09/08 10:51:00;;;;;;;21.60;4.03;;;16.50;99.90;;;;;;4971733;28;20030;-73
2022/09/08 10:53:26;;;;;;;24.73;3.97;;;16.50;99.90;;;;;;4991681;28;20469;-73
2022/09/08 10:56:11;;;;;;;21.02;4.38;;;16.60;99.90;;;;;;5030125;28;20555;-73
2022/09/08 10:58:52;;;;;;;22.05;3.67;;;16.70;99.90;;;;;;5010527;28;20029;-73
2022/09/08 11:01:40;;;;;;;20.77;4.00;;;16.70;99.90;;;;;;5027095;28;20049;-74
2022/09/08 11:04:27;;;;;;;18.75;3.78;;;16.70;99.90;;;;;;5021181;28;20041;-72
2022/09/08 11:07:10;;;;;;;17.02;3.42;;;16.80;99.90;;;;;;5041759;28;20070;-71
2022/09/08 11:10:06;;;;;;;19.38;3.67;;;16.80;99.90;;;;;;5044124;28;20041;-71
2022/09/08 11:13:23;;;;;;;21.80;4.18;;;16.80;99.90;;;;;;5038541;28;20025;-70
2022/09/08 11:15:58;;;;;;;23.95;4.97;;;16.70;99.90;;;;;;5099526;28;20054;-71
2022/09/08 11:18:53;;;;;;;21.30;4.53;;;16.60;99.90;;;;;;5104579;28;20474;-71
2022/09/08 11:21:29;;;;;;;27.33;4.63;;;16.40;99.90;;;;;;5083006;28;20051;-72
2022/09/08 11:24:07;;;;;;;17.75;3.72;;;16.40;99.90;;;;;;5100187;28;20050;-71
2022/09/08 11:26:58;;;;;;;18.38;3.40;;;16.50;99.90;;;;;;5088304;28;20185;-71
2022/09/08 11:29:35;;;;;;;19.02;3.67;;;16.50;99.90;;;;;;5078276;28;20397;-71
2022/09/08 11:32:20;;;;;;;17.10;3.65;;;16.60;99.90;;;;;;5110087;28;20499;-72
2022/09/08 11:35:03;;;;;;;25.60;3.83;;;16.70;99.90;;;;;;5110008;28;20036;-72
2022/09/08 11:37:41;;;;;;;21.83;3.80;;;16.70;99.90;;;;;;5109878;28;20043;-74
2022/09/08 11:40:18;;;;;;;19.63;3.95;;;16.70;99.90;;;;;;5121690;27;20054;-73
2022/09/08 11:43:15;;;;;;;16.35;3.75;;;16.60;99.90;;;;;;5129438;27;20031;-72
2022/09/08 11:45:59;;;;;;;19.92;3.67;;;16.50;99.90;;;;;;5094757;28;20035;-72
2022/09/08 11:48:51;;;;;;;20.40;3.97;;;16.50;99.90;;;;;;5071134;28;20127;-70
2022/09/08 11:51:48;;;;;;;17.63;3.40;;;16.60;99.90;;;;;;5100300;28;20035;-71
2022/09/08 11:54:36;;;;;;;13.00;2.20;;;16.50;99.90;;;;;;5109979;28;20081;-73
2022/09/08 11:57:23;;;;;;;13.23;2.20;;;16.20;99.90;;;;;;5109747;28;20027;-72
2022/09/08 12:00:05;;;;;;;18.60;2.63;;;15.80;99.90;;;;;;5091368;28;20040;-71
2022/09/08 12:03:08;;;;;;;16.13;2.60;;;15.60;99.90;;;;;;5109141;28;20027;-74
2022/09/08 12:05:52;;;;;;;11.77;1.92;;;15.40;99.90;;;;;;5090504;28;20409;-72
2022/09/08 12:08:33;;;;;;;19.80;3.75;;;15.20;99.90;;;;;;5091137;28;20046;-72
2022/09/08 12:11:27;;;;;;;19.30;3.20;;;15.20;99.90;;;;;;5109218;28;20039;-72
2022/09/08 12:14:09;;;;;;;16.92;2.67;;;15.20;99.90;;;;;;5090955;28;20028;-71
2022/09/08 12:16:46;;;;;;;18.23;3.42;;;15.30;99.90;;;;;;5102676;28;20032;-73
2022/09/08 12:19:21;;;;;;;21.92;4.05;;;15.30;99.90;;;;;;5108703;28;20028;-72
2022/09/08 12:22:25;;;;;;;19.52;4.28;;;15.40;99.90;;;;;;5109480;28;20041;-72
2022/09/08 12:25:21;;;;;;;21.88;4.25;;;15.80;99.90;;;;;;5085670;28;20038;-72
2022/09/08 12:28:24;;;;;;;22.83;4.43;;;16.00;99.90;;;;;;5070276;28;20027;-70
2022/09/08 12:31:00;;;;;;;20.58;3.10;;;16.10;99.90;;;;;;5096547;28;20040;-71
2022/09/08 12:34:02;;;;;;;22.65;3.70;;;16.20;99.90;;;;;;5077463;28;20028;-71
2022/09/08 12:36:40;;;;;;;21.10;3.67;;;16.20;99.90;;;;;;5104401;27;20050;-72
2022/09/08 12:39:42;;;;;;;31.13;4.55;;;16.20;99.90;;;;;;5089887;28;20032;-71
2022/09/08 12:42:43;;;;;;;23.92;3.95;;;16.20;99.90;;;;;;5108590;28;20039;-72
2022/09/08 12:45:36;;;;;;;20.65;3.00;;;16.20;99.90;;;;;;5045139;28;20049;-71
2022/09/08 12:48:19;;;;;;;21.80;3.85;;;16.20;99.90;;;;;;5043178;28;20052;-71
2022/09/08 12:51:39;;;;;;;30.55;4.55;;;16.20;99.90;;;;;;5029544;28;20074;-72
2022/09/08 12:54:23;;;;;;;27.60;4.43;;;16.20;99.90;;;;;;4978895;28;20042;-69
2022/09/08 12:56:54;;;;;;;22.60;4.35;;;16.50;99.90;;;;;;4987424;28;20128;-71
2022/09/08 12:59:42;;;;;;;25.52;3.97;;;16.60;99.90;;;;;;4999612;28;20046;-70
2022/09/08 13:02:27;;;;;;;22.58;4.20;;;16.60;99.90;;;;;;4997201;28;20811;-70
2022/09/08 13:05:17;;;;;;;26.75;4.93;;;16.50;99.90;;;;;;4999637;28;20045;-72
2022/09/08 13:07:42;;;;;;;;;;;16.50;99.90;;;;;;4988295;28;20233;-70
2022/09/08 13:10:20;;;;;;;23.08;4.10;;;16.60;99.90;;;;;;4975007;28;20081;-71
2022/09/08 13:12:51;;;;;;;19.20;3.17;;;16.80;99.90;;;;;;4965659;28;20117;-71
2022/09/08 13:15:26;;;;;;;19.52;3.42;;;16.80;99.90;;;;;;4979042;28;20100;-70
2022/09/08 13:17:57;;;;;;;17.02;3.17;;;16.70;99.90;;;;;;4979586;28;20037;-70
2022/09/08 13:20:36;;;;;;;17.58;3.83;;;16.60;99.90;;;;;;5010078;28;20404;-70
2022/09/08 13:23:28;;;;;;;19.80;3.60;;;16.60;99.90;;;;;;5036002;28;20037;-70
2022/09/08 13:26:05;;;;;;;11.32;2.20;;;16.50;99.90;;;;;;5038999;28;20037;-69
2022/09/08 13:28:51;;;;;;;13.65;2.20;;;16.20;99.90;;;;;;5066454;28;20487;-69